Portada
METAR-TAF:

METAR-TAF

Aeroports :

Chillán, Xile

latitud: 36-34S, longitud: 072-02W, altitud: 124 m

Observació

L'informe es va fer fa 1 hora i 8 minuts, a les 20:00 UTC
Vent 15 kt del Sud
Temperatura 12°C
Humitat 58%
Pressió 1022 hPa
Visibilitat 10 km o més
Escasses núvols a una alçada de 3000 ft
Núvols disperses a una alçada de 20000 ft

METAR: SCCH 182000Z 19015KT 9999 FEW030 SCT200 12/04 Q1022

Hora: 17:08 (21:08 UTC)


TAF: manca

Observacions i pronòstics meteorològics de més de 4000 aeroports (METAR i TAF).

Les estacions disponibles són els punts grocs i vermells al mapa.

Posi el ratolí al punt desitjat per veure el nom de l'estació.

Feu clic per veure les observacions i els pronòstics meteorològics.

Per canviar el mapa: feu clic els botons verds amb una creu de color negre per apropar; al botó verd amb un guió per allunyar la imatge; o en les fletxes verdes per a mapes adjacents.


METAR-TAF: